Aérodrome :
LOGIN :

S'inscrire | Disclaimer

   EN    FR    IT 

 










Légende :    VFR   VFR Marginal   IFR   IFR Intensif   IFR Très Intensif
Visi : 
Plafond : 
>= 8 km
>= 3000ft
5 à 8 km
1000 à 3000 ft
1500m à 5 km
500 à 1000 ft
800 à 1500m
200 à 500 ft
< 800m
< 200 ft
Symboles :   Orages  Brouillard  Fortes neiges  Fortes précipitations  Vent > 20 kt
SIGMETs :   Divers  Orages  Givrage  Turbulence  Onde Orograph.  Cendres Volcan.







- Altitude de l'aérodrome : 1058 ft
- Code IATA : SCN


EDDR - Saarbrücken

DERNIER METAR :
  • 231550Z 03003KT 9999 FEW040 SCT120 18/10 Q1021 NOSIG

METARs EXPIRÉS :
  • 231520Z 04003KT 340V090 9999 FEW040 SCT120 19/10 Q1021 NOSIG
  • 231450Z 01004KT 340V050 9999 FEW040 20/09 Q1021 NOSIG
  • 231420Z 07003KT 010V120 9999 FEW035 20/08 Q1021 NOSIG
  • 231350Z 05004KT 020V080 9999 FEW035 18/10 Q1022 NOSIG
  • 231320Z 08005KT 030V170 9999 FEW030 19/10 Q1022 NOSIG

TAF TAF EDDR
Valide du 23 à 12h jusqu'au 24 à 12h UTC


231100Z 2312/2412 05005KT 9999 SCT030
PROB30
TEMPO 2313/2317 SHRA SCT030TCU
TEMPO 2403/2409 4500 BR
PROB30
TEMPO 2404/2408 0800 FG BKN003
Pas de NOTAMs connus pour ce terrain.



MET'MAP, la Météo Aéronautique d'un coup d'oeil ! - Copyright ORBIFLY Décembre 2007 - Disclaimer

ORBIFLY MET'MAP TEAM :

Programmation & Développement : Alexandra Zaïnal
Conception & Développement : Baudouin d'Aumeries
Co-Programmation & Développement : Marc-Olivier Méhu
Soutien technique & logistique : Manuel Goepfert

Contact : metmap@orbifly.com




SOURCES & CREDITS :

   NOAA